sensor_id;sensor_type;location;lat;lon;timestamp;P1;durP1;ratioP1;P2;durP2;ratioP2
71265;SDS011;59030;52.052;8.550;2023-04-24T00:01:17;0.30;;;0.30;;
71265;SDS011;59030;52.052;8.550;2023-04-24T00:03:48;0.27;;;0.27;;
71265;SDS011;59030;52.052;8.550;2023-04-24T00:06:15;0.33;;;0.33;;
71265;SDS011;59030;52.052;8.550;2023-04-24T00:08:43;0.40;;;0.40;;
71265;SDS011;59030;52.052;8.550;2023-04-24T00:11:10;0.40;;;0.40;;
71265;SDS011;59030;52.052;8.550;2023-04-24T00:13:38;0.30;;;0.30;;
71265;SDS011;59030;52.052;8.550;2023-04-24T00:16:05;0.30;;;0.30;;
71265;SDS011;59030;52.052;8.550;2023-04-24T00:18:33;0.27;;;0.27;;
71265;SDS011;59030;52.052;8.550;2023-04-24T00:21:00;0.40;;;0.40;;
71265;SDS011;59030;52.052;8.550;2023-04-24T00:23:27;0.40;;;0.40;;
71265;SDS011;59030;52.052;8.550;2023-04-24T00:25:54;0.33;;;0.33;;
71265;SDS011;59030;52.052;8.550;2023-04-24T00:28:22;0.40;;;0.40;;
71265;SDS011;59030;52.052;8.550;2023-04-24T00:30:49;0.40;;;0.40;;
71265;SDS011;59030;52.052;8.550;2023-04-24T00:33:16;0.40;;;0.40;;
71265;SDS011;59030;52.052;8.550;2023-04-24T00:35:44;0.50;;;0.50;;
71265;SDS011;59030;52.052;8.550;2023-04-24T00:38:12;0.40;;;0.40;;
71265;SDS011;59030;52.052;8.550;2023-04-24T00:40:39;0.47;;;0.47;;
71265;SDS011;59030;52.052;8.550;2023-04-24T00:43:07;0.73;;;0.60;;
71265;SDS011;59030;52.052;8.550;2023-04-24T00:45:34;0.50;;;0.50;;
71265;SDS011;59030;52.052;8.550;2023-04-24T00:48:02;0.40;;;0.40;;
71265;SDS011;59030;52.052;8.550;2023-04-24T00:50:29;0.70;;;0.70;;
71265;SDS011;59030;52.052;8.550;2023-04-24T00:52:56;0.70;;;0.70;;
71265;SDS011;59030;52.052;8.550;2023-04-24T00:55:24;0.40;;;0.40;;
71265;SDS011;59030;52.052;8.550;2023-04-24T00:57:51;0.47;;;0.47;;
71265;SDS011;59030;52.052;8.550;2023-04-24T01:00:19;0.40;;;0.40;;
71265;SDS011;59030;52.052;8.550;2023-04-24T01:02:46;0.40;;;0.40;;
71265;SDS011;59030;52.052;8.550;2023-04-24T01:05:14;0.50;;;0.50;;
71265;SDS011;59030;52.052;8.550;2023-04-24T01:07:45;0.50;;;0.50;;
71265;SDS011;59030;52.052;8.550;2023-04-24T01:10:15;0.40;;;0.40;;
71265;SDS011;59030;52.052;8.550;2023-04-24T01:12:44;0.50;;;0.50;;
71265;SDS011;59030;52.052;8.550;2023-04-24T01:15:13;0.63;;;0.63;;
71265;SDS011;59030;52.052;8.550;2023-04-24T01:17:43;0.90;;;0.90;;
71265;SDS011;59030;52.052;8.550;2023-04-24T01:20:12;0.90;;;0.90;;
71265;SDS011;59030;52.052;8.550;2023-04-24T01:22:42;0.80;;;0.80;;
71265;SDS011;59030;52.052;8.550;2023-04-24T01:25:12;0.60;;;0.60;;
71265;SDS011;59030;52.052;8.550;2023-04-24T01:27:40;0.77;;;0.77;;
71265;SDS011;59030;52.052;8.550;2023-04-24T01:30:08;0.80;;;0.80;;
71265;SDS011;59030;52.052;8.550;2023-04-24T01:32:36;0.70;;;0.70;;
71265;SDS011;59030;52.052;8.550;2023-04-24T01:35:08;0.77;;;0.77;;
71265;SDS011;59030;52.052;8.550;2023-04-24T01:37:36;1.00;;;0.90;;
71265;SDS011;59030;52.052;8.550;2023-04-24T01:40:04;0.80;;;0.80;;
71265;SDS011;59030;52.052;8.550;2023-04-24T01:42:34;1.17;;;1.00;;
71265;SDS011;59030;52.052;8.550;2023-04-24T01:45:07;0.80;;;0.80;;
71265;SDS011;59030;52.052;8.550;2023-04-24T01:53:31;0.70;;;0.70;;
71265;SDS011;59030;52.052;8.550;2023-04-24T02:01:58;0.80;;;0.80;;
71265;SDS011;59030;52.052;8.550;2023-04-24T02:07:29;0.90;;;0.90;;
71265;SDS011;59030;52.052;8.550;2023-04-24T02:10:09;0.77;;;0.70;;
71265;SDS011;59030;52.052;8.550;2023-04-24T02:12:57;0.70;;;0.63;;
71265;SDS011;59030;52.052;8.550;2023-04-24T02:15:54;0.77;;;0.77;;
71265;SDS011;59030;52.052;8.550;2023-04-24T02:21:38;0.90;;;0.90;;
71265;SDS011;59030;52.052;8.550;2023-04-24T02:53:30;0.83;;;0.83;;
71265;SDS011;59030;52.052;8.550;2023-04-24T02:56:12;0.70;;;0.70;;
71265;SDS011;59030;52.052;8.550;2023-04-24T03:15:41;0.80;;;0.80;;
71265;SDS011;59030;52.052;8.550;2023-04-24T03:21:02;0.90;;;0.90;;
71265;SDS011;59030;52.052;8.550;2023-04-24T03:23:45;0.70;;;0.70;;
71265;SDS011;59030;52.052;8.550;2023-04-24T03:26:21;0.50;;;0.50;;
71265;SDS011;59030;52.052;8.550;2023-04-24T03:51:17;0.83;;;0.83;;
71265;SDS011;59030;52.052;8.550;2023-04-24T03:56:55;0.97;;;0.97;;
71265;SDS011;59030;52.052;8.550;2023-04-24T04:19:40;0.80;;;0.80;;
71265;SDS011;59030;52.052;8.550;2023-04-24T04:22:07;1.40;;;1.30;;
71265;SDS011;59030;52.052;8.550;2023-04-24T04:24:35;1.30;;;1.20;;
71265;SDS011;59030;52.052;8.550;2023-04-24T04:27:03;1.47;;;1.37;;
71265;SDS011;59030;52.052;8.550;2023-04-24T04:29:31;1.20;;;1.10;;
71265;SDS011;59030;52.052;8.550;2023-04-24T04:31:58;1.40;;;1.30;;
71265;SDS011;59030;52.052;8.550;2023-04-24T04:34:26;1.40;;;1.30;;
71265;SDS011;59030;52.052;8.550;2023-04-24T04:36:53;1.97;;;1.37;;
71265;SDS011;59030;52.052;8.550;2023-04-24T04:39:20;1.20;;;1.17;;
71265;SDS011;59030;52.052;8.550;2023-04-24T04:41:48;1.63;;;1.53;;
71265;SDS011;59030;52.052;8.550;2023-04-24T04:44:16;1.60;;;1.47;;
71265;SDS011;59030;52.052;8.550;2023-04-24T04:46:44;3.43;;;1.57;;
71265;SDS011;59030;52.052;8.550;2023-04-24T04:49:11;1.40;;;1.30;;
71265;SDS011;59030;52.052;8.550;2023-04-24T04:51:40;1.60;;;1.50;;
71265;SDS011;59030;52.052;8.550;2023-04-24T04:54:09;2.80;;;2.17;;
71265;SDS011;59030;52.052;8.550;2023-04-24T04:56:38;1.97;;;1.80;;
71265;SDS011;59030;52.052;8.550;2023-04-24T04:59:08;2.93;;;2.63;;
71265;SDS011;59030;52.052;8.550;2023-04-24T05:17:40;3.97;;;2.53;;
71265;SDS011;59030;52.052;8.550;2023-04-24T05:20:08;3.47;;;2.33;;
71265;SDS011;59030;52.052;8.550;2023-04-24T05:22:37;3.07;;;2.47;;
71265;SDS011;59030;52.052;8.550;2023-04-24T05:25:07;3.37;;;2.73;;
71265;SDS011;59030;52.052;8.550;2023-04-24T05:27:36;2.93;;;2.37;;
71265;SDS011;59030;52.052;8.550;2023-04-24T05:30:06;3.57;;;2.57;;
71265;SDS011;59030;52.052;8.550;2023-04-24T05:35:19;5.47;;;3.03;;
71265;SDS011;59030;52.052;8.550;2023-04-24T05:37:49;2.50;;;2.27;;
71265;SDS011;59030;52.052;8.550;2023-04-24T05:40:19;3.43;;;2.70;;
71265;SDS011;59030;52.052;8.550;2023-04-24T05:42:49;3.97;;;2.70;;
71265;SDS011;59030;52.052;8.550;2023-04-24T05:45:17;3.60;;;2.40;;
71265;SDS011;59030;52.052;8.550;2023-04-24T05:47:46;4.00;;;3.13;;
71265;SDS011;59030;52.052;8.550;2023-04-24T05:50:21;3.57;;;3.03;;
71265;SDS011;59030;52.052;8.550;2023-04-24T05:52:51;3.33;;;3.00;;
71265;SDS011;59030;52.052;8.550;2023-04-24T05:55:18;3.20;;;2.53;;
71265;SDS011;59030;52.052;8.550;2023-04-24T05:57:47;3.90;;;2.70;;
71265;SDS011;59030;52.052;8.550;2023-04-24T06:00:16;4.20;;;2.70;;
71265;SDS011;59030;52.052;8.550;2023-04-24T06:02:45;4.13;;;2.80;;
71265;SDS011;59030;52.052;8.550;2023-04-24T06:05:15;4.37;;;3.00;;
71265;SDS011;59030;52.052;8.550;2023-04-24T06:07:46;4.03;;;2.90;;
71265;SDS011;59030;52.052;8.550;2023-04-24T06:10:14;3.57;;;2.90;;
71265;SDS011;59030;52.052;8.550;2023-04-24T06:12:42;3.77;;;3.20;;
71265;SDS011;59030;52.052;8.550;2023-04-24T06:15:11;3.70;;;2.90;;
71265;SDS011;59030;52.052;8.550;2023-04-24T06:17:40;4.77;;;3.30;;
71265;SDS011;59030;52.052;8.550;2023-04-24T06:20:09;4.10;;;3.27;;
71265;SDS011;59030;52.052;8.550;2023-04-24T06:22:38;3.77;;;3.10;;
71265;SDS011;59030;52.052;8.550;2023-04-24T06:25:07;6.10;;;2.73;;
71265;SDS011;59030;52.052;8.550;2023-04-24T06:27:34;4.97;;;3.20;;
71265;SDS011;59030;52.052;8.550;2023-04-24T06:30:04;4.73;;;2.87;;
71265;SDS011;59030;52.052;8.550;2023-04-24T06:32:31;4.07;;;2.70;;
71265;SDS011;59030;52.052;8.550;2023-04-24T06:34:58;4.47;;;3.00;;
71265;SDS011;59030;52.052;8.550;2023-04-24T06:37:26;4.70;;;3.20;;
71265;SDS011;59030;52.052;8.550;2023-04-24T06:39:53;4.93;;;3.17;;
71265;SDS011;59030;52.052;8.550;2023-04-24T06:42:21;5.17;;;3.43;;
71265;SDS011;59030;52.052;8.550;2023-04-24T06:44:49;4.07;;;3.57;;
71265;SDS011;59030;52.052;8.550;2023-04-24T06:47:17;4.20;;;3.03;;
71265;SDS011;59030;52.052;8.550;2023-04-24T06:49:45;3.93;;;3.10;;
71265;SDS011;59030;52.052;8.550;2023-04-24T06:52:12;4.47;;;3.50;;
71265;SDS011;59030;52.052;8.550;2023-04-24T06:54:42;3.60;;;2.90;;
71265;SDS011;59030;52.052;8.550;2023-04-24T06:57:11;5.83;;;3.43;;
71265;SDS011;59030;52.052;8.550;2023-04-24T06:59:39;4.43;;;3.20;;
71265;SDS011;59030;52.052;8.550;2023-04-24T07:02:06;4.57;;;3.17;;
71265;SDS011;59030;52.052;8.550;2023-04-24T07:04:33;5.50;;;3.37;;
71265;SDS011;59030;52.052;8.550;2023-04-24T07:07:01;4.30;;;3.00;;
71265;SDS011;59030;52.052;8.550;2023-04-24T07:09:29;4.50;;;3.30;;
71265;SDS011;59030;52.052;8.550;2023-04-24T07:11:56;4.03;;;3.40;;
71265;SDS011;59030;52.052;8.550;2023-04-24T07:14:24;5.23;;;3.17;;
71265;SDS011;59030;52.052;8.550;2023-04-24T07:16:51;4.87;;;3.73;;
71265;SDS011;59030;52.052;8.550;2023-04-24T07:19:18;4.40;;;3.37;;
71265;SDS011;59030;52.052;8.550;2023-04-24T07:21:46;4.13;;;2.90;;
71265;SDS011;59030;52.052;8.550;2023-04-24T07:24:13;4.33;;;3.47;;
71265;SDS011;59030;52.052;8.550;2023-04-24T07:26:41;4.93;;;3.50;;
71265;SDS011;59030;52.052;8.550;2023-04-24T07:29:09;3.43;;;2.83;;
71265;SDS011;59030;52.052;8.550;2023-04-24T07:31:36;4.43;;;3.20;;
71265;SDS011;59030;52.052;8.550;2023-04-24T07:34:04;5.47;;;3.20;;
71265;SDS011;59030;52.052;8.550;2023-04-24T07:36:31;3.00;;;2.70;;
71265;SDS011;59030;52.052;8.550;2023-04-24T07:38:58;3.83;;;2.67;;
71265;SDS011;59030;52.052;8.550;2023-04-24T07:41:26;3.40;;;2.80;;
71265;SDS011;59030;52.052;8.550;2023-04-24T07:43:54;2.37;;;2.10;;
71265;SDS011;59030;52.052;8.550;2023-04-24T07:46:21;4.10;;;2.40;;
71265;SDS011;59030;52.052;8.550;2023-04-24T07:48:50;3.07;;;2.63;;
71265;SDS011;59030;52.052;8.550;2023-04-24T07:51:17;2.70;;;2.40;;
71265;SDS011;59030;52.052;8.550;2023-04-24T07:53:44;3.10;;;2.47;;
71265;SDS011;59030;52.052;8.550;2023-04-24T07:56:12;2.83;;;2.47;;
71265;SDS011;59030;52.052;8.550;2023-04-24T07:58:39;2.53;;;2.27;;
71265;SDS011;59030;52.052;8.550;2023-04-24T08:01:07;2.47;;;2.20;;
71265;SDS011;59030;52.052;8.550;2023-04-24T08:03:34;2.40;;;2.20;;
71265;SDS011;59030;52.052;8.550;2023-04-24T08:06:01;3.13;;;2.20;;
71265;SDS011;59030;52.052;8.550;2023-04-24T08:08:29;2.07;;;1.93;;
71265;SDS011;59030;52.052;8.550;2023-04-24T08:10:56;2.60;;;2.27;;
71265;SDS011;59030;52.052;8.550;2023-04-24T08:13:24;2.47;;;2.07;;
71265;SDS011;59030;52.052;8.550;2023-04-24T08:15:51;2.23;;;1.97;;
71265;SDS011;59030;52.052;8.550;2023-04-24T08:18:18;2.57;;;2.07;;
71265;SDS011;59030;52.052;8.550;2023-04-24T08:20:46;2.03;;;1.93;;
71265;SDS011;59030;52.052;8.550;2023-04-24T08:23:13;2.10;;;1.90;;
71265;SDS011;59030;52.052;8.550;2023-04-24T08:25:41;2.40;;;2.20;;
71265;SDS011;59030;52.052;8.550;2023-04-24T08:28:08;2.93;;;2.27;;
71265;SDS011;59030;52.052;8.550;2023-04-24T08:30:37;2.50;;;1.83;;
71265;SDS011;59030;52.052;8.550;2023-04-24T08:33:04;3.73;;;2.20;;
71265;SDS011;59030;52.052;8.550;2023-04-24T08:35:32;1.90;;;1.77;;
71265;SDS011;59030;52.052;8.550;2023-04-24T08:38:00;1.80;;;1.70;;
71265;SDS011;59030;52.052;8.550;2023-04-24T08:40:28;1.60;;;1.50;;
71265;SDS011;59030;52.052;8.550;2023-04-24T08:42:59;2.00;;;1.80;;
71265;SDS011;59030;52.052;8.550;2023-04-24T08:45:26;1.87;;;1.77;;
71265;SDS011;59030;52.052;8.550;2023-04-24T08:47:53;1.77;;;1.67;;
71265;SDS011;59030;52.052;8.550;2023-04-24T08:50:21;1.47;;;1.37;;
71265;SDS011;59030;52.052;8.550;2023-04-24T08:52:50;2.07;;;1.53;;
71265;SDS011;59030;52.052;8.550;2023-04-24T08:55:22;1.57;;;1.47;;
71265;SDS011;59030;52.052;8.550;2023-04-24T08:57:57;1.40;;;1.30;;
71265;SDS011;59030;52.052;8.550;2023-04-24T09:00:26;1.53;;;1.43;;
71265;SDS011;59030;52.052;8.550;2023-04-24T09:02:56;1.70;;;1.60;;
71265;SDS011;59030;52.052;8.550;2023-04-24T09:05:27;1.60;;;1.43;;
71265;SDS011;59030;52.052;8.550;2023-04-24T09:07:56;1.53;;;1.37;;
71265;SDS011;59030;52.052;8.550;2023-04-24T09:10:26;1.83;;;1.73;;
71265;SDS011;59030;52.052;8.550;2023-04-24T09:12:55;1.33;;;1.23;;
71265;SDS011;59030;52.052;8.550;2023-04-24T09:15:25;1.47;;;1.37;;
71265;SDS011;59030;52.052;8.550;2023-04-24T09:17:54;1.40;;;1.30;;
71265;SDS011;59030;52.052;8.550;2023-04-24T09:20:24;1.50;;;1.27;;
71265;SDS011;59030;52.052;8.550;2023-04-24T09:22:55;1.37;;;1.20;;
71265;SDS011;59030;52.052;8.550;2023-04-24T09:25:25;1.20;;;1.10;;
71265;SDS011;59030;52.052;8.550;2023-04-24T09:27:59;1.30;;;1.20;;
71265;SDS011;59030;52.052;8.550;2023-04-24T09:30:37;1.43;;;1.33;;
71265;SDS011;59030;52.052;8.550;2023-04-24T09:33:12;1.27;;;1.17;;
71265;SDS011;59030;52.052;8.550;2023-04-24T09:35:48;1.20;;;1.20;;
71265;SDS011;59030;52.052;8.550;2023-04-24T09:38:17;1.27;;;1.17;;
71265;SDS011;59030;52.052;8.550;2023-04-24T09:40:45;0.87;;;0.87;;
71265;SDS011;59030;52.052;8.550;2023-04-24T09:43:15;1.00;;;1.00;;
71265;SDS011;59030;52.052;8.550;2023-04-24T09:45:44;1.23;;;1.17;;
71265;SDS011;59030;52.052;8.550;2023-04-24T09:48:11;1.53;;;1.13;;
71265;SDS011;59030;52.052;8.550;2023-04-24T09:56:34;1.30;;;1.20;;
71265;SDS011;59030;52.052;8.550;2023-04-24T09:59:05;0.93;;;0.90;;
71265;SDS011;59030;52.052;8.550;2023-04-24T10:01:33;0.80;;;0.80;;
71265;SDS011;59030;52.052;8.550;2023-04-24T10:04:00;0.70;;;0.70;;
71265;SDS011;59030;52.052;8.550;2023-04-24T10:06:32;0.80;;;0.80;;
71265;SDS011;59030;52.052;8.550;2023-04-24T10:09:00;0.80;;;0.80;;
71265;SDS011;59030;52.052;8.550;2023-04-24T10:11:27;0.80;;;0.80;;
71265;SDS011;59030;52.052;8.550;2023-04-24T10:13:59;0.93;;;0.93;;
71265;SDS011;59030;52.052;8.550;2023-04-24T10:16:26;0.63;;;0.63;;
71265;SDS011;59030;52.052;8.550;2023-04-24T10:18:54;0.90;;;0.90;;
71265;SDS011;59030;52.052;8.550;2023-04-24T10:21:23;0.80;;;0.80;;
71265;SDS011;59030;52.052;8.550;2023-04-24T10:23:52;0.70;;;0.70;;
71265;SDS011;59030;52.052;8.550;2023-04-24T10:26:23;0.90;;;0.90;;
71265;SDS011;59030;52.052;8.550;2023-04-24T10:28:52;0.80;;;0.80;;
71265;SDS011;59030;52.052;8.550;2023-04-24T10:31:21;0.80;;;0.80;;
71265;SDS011;59030;52.052;8.550;2023-04-24T10:33:49;0.57;;;0.57;;
71265;SDS011;59030;52.052;8.550;2023-04-24T10:36:17;0.77;;;0.77;;
71265;SDS011;59030;52.052;8.550;2023-04-24T10:38:45;0.77;;;0.77;;
71265;SDS011;59030;52.052;8.550;2023-04-24T10:41:15;0.77;;;0.77;;
71265;SDS011;59030;52.052;8.550;2023-04-24T10:43:48;1.00;;;1.00;;
71265;SDS011;59030;52.052;8.550;2023-04-24T10:46:19;1.00;;;1.00;;
71265;SDS011;59030;52.052;8.550;2023-04-24T10:48:52;1.67;;;1.27;;
71265;SDS011;59030;52.052;8.550;2023-04-24T10:51:22;1.40;;;1.30;;
71265;SDS011;59030;52.052;8.550;2023-04-24T10:53:50;1.40;;;1.40;;
71265;SDS011;59030;52.052;8.550;2023-04-24T10:56:17;1.80;;;1.60;;
71265;SDS011;59030;52.052;8.550;2023-04-24T10:58:49;1.30;;;1.20;;
71265;SDS011;59030;52.052;8.550;2023-04-24T11:01:24;1.70;;;1.60;;
71265;SDS011;59030;52.052;8.550;2023-04-24T11:03:57;1.60;;;1.53;;
71265;SDS011;59030;52.052;8.550;2023-04-24T11:06:31;1.57;;;1.47;;
71265;SDS011;59030;52.052;8.550;2023-04-24T11:09:03;1.80;;;1.70;;
71265;SDS011;59030;52.052;8.550;2023-04-24T11:11:32;1.83;;;1.73;;
71265;SDS011;59030;52.052;8.550;2023-04-24T11:14:09;1.80;;;1.70;;
71265;SDS011;59030;52.052;8.550;2023-04-24T11:16:41;1.70;;;1.60;;
71265;SDS011;59030;52.052;8.550;2023-04-24T11:19:17;1.90;;;1.80;;
71265;SDS011;59030;52.052;8.550;2023-04-24T11:21:39;2.20;;;1.87;;
71265;SDS011;59030;52.052;8.550;2023-04-24T11:26:54;1.97;;;1.77;;
71265;SDS011;59030;52.052;8.550;2023-04-24T11:29:21;1.47;;;1.37;;
71265;SDS011;59030;52.052;8.550;2023-04-24T11:31:48;1.70;;;1.60;;
71265;SDS011;59030;52.052;8.550;2023-04-24T11:34:18;1.50;;;1.40;;
71265;SDS011;59030;52.052;8.550;2023-04-24T11:36:47;1.33;;;1.23;;
71265;SDS011;59030;52.052;8.550;2023-04-24T11:39:15;1.50;;;1.40;;
71265;SDS011;59030;52.052;8.550;2023-04-24T11:44:38;0.80;;;0.80;;
71265;SDS011;59030;52.052;8.550;2023-04-24T11:47:06;0.90;;;0.90;;
71265;SDS011;59030;52.052;8.550;2023-04-24T11:49:36;0.50;;;0.50;;
71265;SDS011;59030;52.052;8.550;2023-04-24T11:52:03;0.70;;;0.70;;
71265;SDS011;59030;52.052;8.550;2023-04-24T11:54:33;0.70;;;0.70;;
71265;SDS011;59030;52.052;8.550;2023-04-24T11:57:04;0.60;;;0.60;;
71265;SDS011;59030;52.052;8.550;2023-04-24T11:59:36;0.50;;;0.50;;
71265;SDS011;59030;52.052;8.550;2023-04-24T12:02:04;0.60;;;0.60;;
71265;SDS011;59030;52.052;8.550;2023-04-24T12:04:38;0.60;;;0.60;;
71265;SDS011;59030;52.052;8.550;2023-04-24T12:07:07;0.60;;;0.60;;
71265;SDS011;59030;52.052;8.550;2023-04-24T12:09:41;0.80;;;0.80;;
71265;SDS011;59030;52.052;8.550;2023-04-24T12:12:10;0.90;;;0.90;;
71265;SDS011;59030;52.052;8.550;2023-04-24T12:14:44;0.80;;;0.80;;
71265;SDS011;59030;52.052;8.550;2023-04-24T12:17:12;0.80;;;0.80;;
71265;SDS011;59030;52.052;8.550;2023-04-24T12:19:44;1.20;;;1.10;;
71265;SDS011;59030;52.052;8.550;2023-04-24T12:25:05;0.90;;;0.87;;
71265;SDS011;59030;52.052;8.550;2023-04-24T12:27:33;0.90;;;0.90;;
71265;SDS011;59030;52.052;8.550;2023-04-24T12:30:01;1.10;;;1.00;;
71265;SDS011;59030;52.052;8.550;2023-04-24T12:32:29;1.00;;;1.00;;
71265;SDS011;59030;52.052;8.550;2023-04-24T12:34:57;1.40;;;1.30;;
71265;SDS011;59030;52.052;8.550;2023-04-24T12:37:32;2.13;;;1.47;;
71265;SDS011;59030;52.052;8.550;2023-04-24T12:39:59;1.43;;;1.33;;
71265;SDS011;59030;52.052;8.550;2023-04-24T12:42:27;1.50;;;1.40;;
71265;SDS011;59030;52.052;8.550;2023-04-24T12:44:56;2.00;;;1.70;;
71265;SDS011;59030;52.052;8.550;2023-04-24T12:47:25;1.93;;;1.50;;
71265;SDS011;59030;52.052;8.550;2023-04-24T12:49:53;1.57;;;1.47;;
71265;SDS011;59030;52.052;8.550;2023-04-24T12:52:22;2.00;;;1.80;;
71265;SDS011;59030;52.052;8.550;2023-04-24T12:54:51;2.37;;;1.70;;
71265;SDS011;59030;52.052;8.550;2023-04-24T12:57:20;1.60;;;1.43;;
71265;SDS011;59030;52.052;8.550;2023-04-24T12:59:47;2.20;;;1.93;;
71265;SDS011;59030;52.052;8.550;2023-04-24T13:02:15;2.70;;;2.10;;
71265;SDS011;59030;52.052;8.550;2023-04-24T13:04:44;1.67;;;1.57;;
71265;SDS011;59030;52.052;8.550;2023-04-24T13:07:12;2.03;;;1.83;;
71265;SDS011;59030;52.052;8.550;2023-04-24T13:09:40;2.03;;;1.87;;
71265;SDS011;59030;52.052;8.550;2023-04-24T13:12:08;2.37;;;1.90;;
71265;SDS011;59030;52.052;8.550;2023-04-24T13:14:38;1.80;;;1.70;;
71265;SDS011;59030;52.052;8.550;2023-04-24T13:17:06;1.40;;;1.30;;
71265;SDS011;59030;52.052;8.550;2023-04-24T13:19:39;1.33;;;1.23;;
71265;SDS011;59030;52.052;8.550;2023-04-24T13:22:06;1.97;;;1.70;;
71265;SDS011;59030;52.052;8.550;2023-04-24T13:24:34;1.43;;;1.33;;
71265;SDS011;59030;52.052;8.550;2023-04-24T13:27:01;1.60;;;1.50;;
71265;SDS011;59030;52.052;8.550;2023-04-24T13:29:29;1.90;;;1.67;;
71265;SDS011;59030;52.052;8.550;2023-04-24T13:31:59;1.77;;;1.47;;
71265;SDS011;59030;52.052;8.550;2023-04-24T13:34:29;3.40;;;1.43;;
71265;SDS011;59030;52.052;8.550;2023-04-24T13:37:01;1.80;;;1.60;;
71265;SDS011;59030;52.052;8.550;2023-04-24T13:39:29;2.30;;;2.10;;
71265;SDS011;59030;52.052;8.550;2023-04-24T13:47:44;3.80;;;1.60;;
71265;SDS011;59030;52.052;8.550;2023-04-24T13:50:40;2.00;;;1.80;;
71265;SDS011;59030;52.052;8.550;2023-04-24T13:56:53;4.33;;;2.20;;
71265;SDS011;59030;52.052;8.550;2023-04-24T13:59:39;2.77;;;2.10;;
71265;SDS011;59030;52.052;8.550;2023-04-24T14:02:10;3.50;;;2.13;;
71265;SDS011;59030;52.052;8.550;2023-04-24T14:04:40;3.53;;;2.13;;
71265;SDS011;59030;52.052;8.550;2023-04-24T14:10:23;2.50;;;1.97;;
71265;SDS011;59030;52.052;8.550;2023-04-24T14:13:01;2.80;;;2.43;;
71265;SDS011;59030;52.052;8.550;2023-04-24T14:15:33;3.07;;;2.33;;
71265;SDS011;59030;52.052;8.550;2023-04-24T14:18:06;2.97;;;2.40;;
71265;SDS011;59030;52.052;8.550;2023-04-24T14:23:47;3.20;;;2.80;;
71265;SDS011;59030;52.052;8.550;2023-04-24T14:26:18;2.73;;;1.97;;
71265;SDS011;59030;52.052;8.550;2023-04-24T14:28:51;2.87;;;2.53;;
71265;SDS011;59030;52.052;8.550;2023-04-24T14:40:14;2.83;;;2.20;;
71265;SDS011;59030;52.052;8.550;2023-04-24T14:42:42;2.57;;;1.63;;
71265;SDS011;59030;52.052;8.550;2023-04-24T14:45:11;1.50;;;1.40;;
71265;SDS011;59030;52.052;8.550;2023-04-24T14:47:39;4.20;;;2.20;;
71265;SDS011;59030;52.052;8.550;2023-04-24T14:50:08;5.87;;;2.17;;
71265;SDS011;59030;52.052;8.550;2023-04-24T14:52:36;3.03;;;2.00;;
71265;SDS011;59030;52.052;8.550;2023-04-24T14:55:04;2.13;;;1.93;;
71265;SDS011;59030;52.052;8.550;2023-04-24T14:57:33;3.10;;;2.33;;
71265;SDS011;59030;52.052;8.550;2023-04-24T15:00:00;3.00;;;2.17;;
71265;SDS011;59030;52.052;8.550;2023-04-24T15:02:30;3.30;;;2.27;;
71265;SDS011;59030;52.052;8.550;2023-04-24T15:04:59;2.07;;;1.87;;
71265;SDS011;59030;52.052;8.550;2023-04-24T15:07:31;1.60;;;1.50;;
71265;SDS011;59030;52.052;8.550;2023-04-24T15:10:01;1.40;;;1.30;;
71265;SDS011;59030;52.052;8.550;2023-04-24T15:12:29;2.13;;;1.93;;
71265;SDS011;59030;52.052;8.550;2023-04-24T15:14:59;3.33;;;2.07;;
71265;SDS011;59030;52.052;8.550;2023-04-24T15:17:30;2.10;;;1.90;;
71265;SDS011;59030;52.052;8.550;2023-04-24T15:19:57;1.83;;;1.73;;
71265;SDS011;59030;52.052;8.550;2023-04-24T15:22:27;1.40;;;1.30;;
71265;SDS011;59030;52.052;8.550;2023-04-24T15:24:57;1.50;;;1.37;;
71265;SDS011;59030;52.052;8.550;2023-04-24T15:27:24;1.60;;;1.50;;
71265;SDS011;59030;52.052;8.550;2023-04-24T15:29:54;2.13;;;1.50;;
71265;SDS011;59030;52.052;8.550;2023-04-24T15:32:22;2.00;;;1.60;;
71265;SDS011;59030;52.052;8.550;2023-04-24T15:34:52;1.83;;;1.70;;
71265;SDS011;59030;52.052;8.550;2023-04-24T15:37:22;2.27;;;1.60;;
71265;SDS011;59030;52.052;8.550;2023-04-24T15:39:52;4.63;;;2.00;;
71265;SDS011;59030;52.052;8.550;2023-04-24T15:42:19;2.37;;;1.63;;
71265;SDS011;59030;52.052;8.550;2023-04-24T15:44:46;1.53;;;1.43;;
71265;SDS011;59030;52.052;8.550;2023-04-24T15:47:14;1.60;;;1.50;;
71265;SDS011;59030;52.052;8.550;2023-04-24T15:49:42;1.37;;;1.27;;
71265;SDS011;59030;52.052;8.550;2023-04-24T15:52:09;1.87;;;1.47;;
71265;SDS011;59030;52.052;8.550;2023-04-24T15:54:36;3.37;;;1.27;;
71265;SDS011;59030;52.052;8.550;2023-04-24T15:57:06;1.20;;;1.13;;
71265;SDS011;59030;52.052;8.550;2023-04-24T15:59:34;1.20;;;1.17;;
71265;SDS011;59030;52.052;8.550;2023-04-24T16:02:04;1.00;;;1.00;;
71265;SDS011;59030;52.052;8.550;2023-04-24T16:04:33;2.37;;;1.23;;
71265;SDS011;59030;52.052;8.550;2023-04-24T16:09:53;1.60;;;1.50;;
71265;SDS011;59030;52.052;8.550;2023-04-24T16:12:22;1.50;;;1.40;;
71265;SDS011;59030;52.052;8.550;2023-04-24T16:14:53;1.40;;;1.30;;
71265;SDS011;59030;52.052;8.550;2023-04-24T16:17:22;1.47;;;1.37;;
71265;SDS011;59030;52.052;8.550;2023-04-24T16:19:51;2.50;;;1.63;;
71265;SDS011;59030;52.052;8.550;2023-04-24T16:22:19;1.30;;;1.20;;
71265;SDS011;59030;52.052;8.550;2023-04-24T16:24:47;1.33;;;1.27;;
71265;SDS011;59030;52.052;8.550;2023-04-24T16:27:14;2.50;;;1.40;;
71265;SDS011;59030;52.052;8.550;2023-04-24T16:29:41;1.43;;;1.30;;
71265;SDS011;59030;52.052;8.550;2023-04-24T16:32:11;1.30;;;1.20;;
71265;SDS011;59030;52.052;8.550;2023-04-24T16:34:40;1.03;;;0.93;;
71265;SDS011;59030;52.052;8.550;2023-04-24T16:37:10;1.37;;;1.27;;
71265;SDS011;59030;52.052;8.550;2023-04-24T16:39:41;1.50;;;1.40;;
71265;SDS011;59030;52.052;8.550;2023-04-24T16:42:10;1.33;;;1.27;;
71265;SDS011;59030;52.052;8.550;2023-04-24T16:44:38;1.43;;;1.33;;
71265;SDS011;59030;52.052;8.550;2023-04-24T16:47:09;1.10;;;1.10;;
71265;SDS011;59030;52.052;8.550;2023-04-24T16:49:41;1.57;;;1.47;;
71265;SDS011;59030;52.052;8.550;2023-04-24T16:52:10;1.30;;;1.20;;
71265;SDS011;59030;52.052;8.550;2023-04-24T16:54:37;1.43;;;1.33;;
71265;SDS011;59030;52.052;8.550;2023-04-24T16:57:10;1.53;;;1.43;;
71265;SDS011;59030;52.052;8.550;2023-04-24T16:59:38;1.60;;;1.50;;
71265;SDS011;59030;52.052;8.550;2023-04-24T17:02:06;1.40;;;1.30;;
71265;SDS011;59030;52.052;8.550;2023-04-24T17:04:36;2.00;;;1.20;;
71265;SDS011;59030;52.052;8.550;2023-04-24T17:07:07;1.37;;;1.27;;
71265;SDS011;59030;52.052;8.550;2023-04-24T17:09:35;1.23;;;1.13;;
71265;SDS011;59030;52.052;8.550;2023-04-24T17:12:02;1.40;;;1.30;;
71265;SDS011;59030;52.052;8.550;2023-04-24T17:14:36;1.70;;;1.40;;
71265;SDS011;59030;52.052;8.550;2023-04-24T17:17:06;1.33;;;1.23;;
71265;SDS011;59030;52.052;8.550;2023-04-24T17:19:34;1.40;;;1.30;;
71265;SDS011;59030;52.052;8.550;2023-04-24T17:22:03;0.90;;;0.90;;
71265;SDS011;59030;52.052;8.550;2023-04-24T17:24:34;1.20;;;1.10;;
71265;SDS011;59030;52.052;8.550;2023-04-24T17:27:12;1.30;;;1.20;;
71265;SDS011;59030;52.052;8.550;2023-04-24T17:29:41;1.53;;;1.20;;
71265;SDS011;59030;52.052;8.550;2023-04-24T17:32:09;2.10;;;1.57;;
71265;SDS011;59030;52.052;8.550;2023-04-24T17:55:51;1.03;;;1.03;;
71265;SDS011;59030;52.052;8.550;2023-04-24T18:14:57;1.00;;;0.80;;
71265;SDS011;59030;52.052;8.550;2023-04-24T18:20:25;3.30;;;1.13;;
71265;SDS011;59030;52.052;8.550;2023-04-24T18:23:18;1.40;;;1.03;;
71265;SDS011;59030;52.052;8.550;2023-04-24T18:25:53;1.10;;;1.00;;
71265;SDS011;59030;52.052;8.550;2023-04-24T18:28:30;1.30;;;1.23;;
71265;SDS011;59030;52.052;8.550;2023-04-24T18:31:29;1.97;;;1.37;;
71265;SDS011;59030;52.052;8.550;2023-04-24T18:58:00;1.33;;;1.30;;
71265;SDS011;59030;52.052;8.550;2023-04-24T19:00:32;1.60;;;1.50;;